createdAt,value
2016-05-05T00:00:07.961Z,1007.93
2016-05-05T00:01:07.948Z,1007.9
2016-05-05T00:02:07.935Z,1007.92
2016-05-05T00:03:07.922Z,1007.94
2016-05-05T00:04:07.909Z,1007.94
2016-05-05T00:05:07.896Z,1007.89
2016-05-05T00:06:07.883Z,1007.93
2016-05-05T00:07:07.870Z,1007.91
2016-05-05T00:08:07.857Z,1007.9
2016-05-05T00:09:07.829Z,1007.88
2016-05-05T00:10:07.831Z,1007.89
2016-05-05T00:11:07.803Z,1007.88
2016-05-05T00:12:07.790Z,1007.9
2016-05-05T00:13:07.793Z,1007.9
2016-05-05T00:14:07.764Z,1007.95
2016-05-05T00:15:07.751Z,1007.98
2016-05-05T00:16:07.738Z,1007.99
2016-05-05T00:17:07.724Z,1007.96
2016-05-05T00:18:07.713Z,1007.96
2016-05-05T00:19:07.699Z,1007.95
2016-05-05T00:20:07.687Z,1007.9
2016-05-05T00:21:07.658Z,1007.89
2016-05-05T00:22:07.645Z,1007.86
2016-05-05T00:23:07.632Z,1007.86
2016-05-05T00:24:07.619Z,1007.85
2016-05-05T00:25:07.606Z,1007.79
2016-05-05T00:26:07.593Z,1007.81
2016-05-05T00:27:07.581Z,1007.78
2016-05-05T00:28:07.567Z,1007.85
2016-05-05T00:29:07.554Z,1007.84
2016-05-05T00:30:07.525Z,1007.88
2016-05-05T00:31:07.529Z,1007.88
2016-05-05T00:32:07.500Z,1007.83
2016-05-05T00:33:07.486Z,1007.81
2016-05-05T00:34:07.475Z,1007.8
2016-05-05T00:35:07.461Z,1007.79
2016-05-05T00:36:07.448Z,1007.75
2016-05-05T00:37:07.436Z,1007.77
2016-05-05T00:38:07.422Z,1007.76
2016-05-05T00:39:07.409Z,1007.77
2016-05-05T00:40:07.396Z,1007.79
2016-05-05T00:41:07.383Z,1007.81
2016-05-05T00:42:07.355Z,1007.79
2016-05-05T00:43:07.358Z,1007.78
2016-05-05T00:44:07.329Z,1007.78
2016-05-05T00:45:07.332Z,1007.81
2016-05-05T00:46:07.302Z,1007.83
2016-05-05T00:47:07.291Z,1007.82
2016-05-05T00:48:07.277Z,1007.78
2016-05-05T00:49:07.265Z,1007.77
2016-05-05T00:50:07.251Z,1007.8
2016-05-05T00:51:07.224Z,1007.79
2016-05-05T00:52:07.226Z,1007.79
2016-05-05T00:53:07.213Z,1007.8
2016-05-05T00:54:07.184Z,1007.81
2016-05-05T00:55:07.171Z,1007.78
2016-05-05T00:56:07.159Z,1007.78
2016-05-05T00:57:07.146Z,1007.74
2016-05-05T00:58:07.133Z,1007.72
2016-05-05T00:59:07.120Z,1007.73
2016-05-05T01:00:07.106Z,1007.73
2016-05-05T01:01:07.078Z,1007.68
2016-05-05T01:02:07.081Z,1007.72
2016-05-05T01:03:07.067Z,1007.69
2016-05-05T01:04:07.039Z,1007.69
2016-05-05T01:05:07.026Z,1007.63
2016-05-05T01:06:07.014Z,1007.64
2016-05-05T01:07:07.000Z,1007.69
2016-05-05T01:08:06.987Z,1007.69
2016-05-05T01:09:06.974Z,1007.65
2016-05-05T01:10:06.961Z,1007.63
2016-05-05T01:11:06.933Z,1007.62
2016-05-05T01:12:06.919Z,1007.59
2016-05-05T01:13:06.907Z,1007.62
2016-05-05T01:14:06.894Z,1007.62
2016-05-05T01:15:06.881Z,1007.58
2016-05-05T01:16:06.869Z,1007.57
2016-05-05T01:17:06.855Z,1007.55
2016-05-05T01:18:06.843Z,1007.58
2016-05-05T01:19:06.829Z,1007.56
2016-05-05T01:20:06.816Z,1007.53
2016-05-05T01:21:06.804Z,1007.52
2016-05-05T01:22:06.775Z,1007.53
2016-05-05T01:23:06.762Z,1007.49
2016-05-05T01:24:06.765Z,1007.48
2016-05-05T01:25:06.737Z,1007.43
2016-05-05T01:26:06.724Z,1007.44
2016-05-05T01:27:06.710Z,1007.38
2016-05-05T01:28:06.698Z,1007.39
2016-05-05T01:29:06.684Z,1007.39
2016-05-05T01:30:06.671Z,1007.39
2016-05-05T01:31:06.643Z,1007.38
2016-05-05T01:32:06.631Z,1007.35
2016-05-05T01:33:06.617Z,1007.35
2016-05-05T01:34:06.604Z,1007.34
2016-05-05T01:35:06.592Z,1007.3
2016-05-05T01:36:06.579Z,1007.33
2016-05-05T01:37:06.565Z,1007.3
2016-05-05T01:38:06.553Z,1007.33
2016-05-05T01:39:06.539Z,1007.27
2016-05-05T01:40:06.527Z,1007.26
2016-05-05T01:41:06.498Z,1007.25
2016-05-05T01:42:06.486Z,1007.24
2016-05-05T01:43:06.472Z,1007.22
2016-05-05T01:44:06.459Z,1007.26
2016-05-05T01:45:06.447Z,1007.26
2016-05-05T01:46:06.433Z,1007.26
2016-05-05T01:47:06.404Z,1007.24
2016-05-05T01:48:06.391Z,1007.25
2016-05-05T01:49:06.394Z,1007.26
2016-05-05T01:50:06.366Z,1007.25
2016-05-05T01:51:06.353Z,1007.25
2016-05-05T01:52:06.361Z,1007.24
2016-05-05T01:53:06.390Z,1007.27
2016-05-05T01:54:06.421Z,1007.26
2016-05-05T01:55:06.450Z,1007.19
2016-05-05T01:56:06.479Z,1007.21
2016-05-05T01:57:06.480Z,1007.24
2016-05-05T01:58:06.482Z,1007.2
2016-05-05T01:59:06.485Z,1007.2
2016-05-05T02:00:06.487Z,1007.23
2016-05-05T02:01:06.491Z,1007.21
2016-05-05T02:02:06.488Z,1007.16
2016-05-05T02:03:06.481Z,1007.17
2016-05-05T02:04:06.473Z,1007.11
2016-05-05T02:05:06.451Z,1007.14
2016-05-05T02:06:06.459Z,1007.17
2016-05-05T02:07:06.450Z,1007.18
2016-05-05T02:08:06.424Z,1007.19
2016-05-05T02:09:06.507Z,1007.2
2016-05-05T02:10:06.401Z,1007.21
2016-05-05T02:11:06.390Z,1007.21
2016-05-05T02:12:06.379Z,1007.22
2016-05-05T02:13:06.367Z,1007.23
2016-05-05T02:14:06.338Z,1007.26
2016-05-05T02:15:06.328Z,1007.24
2016-05-05T02:16:06.314Z,1007.25
2016-05-05T02:17:06.302Z,1007.26
2016-05-05T02:18:06.290Z,1007.23
2016-05-05T02:19:06.277Z,1007.24
2016-05-05T02:20:06.264Z,1007.21
2016-05-05T02:21:06.252Z,1007.2
2016-05-05T02:22:06.240Z,1007.21
2016-05-05T02:23:06.229Z,1007.22
2016-05-05T02:24:06.199Z,1007.16
2016-05-05T02:25:06.187Z,1007.18
2016-05-05T02:26:06.173Z,1007.18
2016-05-05T02:27:06.160Z,1007.14
2016-05-05T02:28:06.148Z,1007.16
2016-05-05T02:29:06.135Z,1007.16
2016-05-05T02:30:06.123Z,1007.17
2016-05-05T02:31:06.109Z,1007.17
2016-05-05T02:32:06.096Z,1007.18
2016-05-05T02:33:06.067Z,1007.16
2016-05-05T02:34:06.070Z,1007.19
2016-05-05T02:35:06.042Z,1007.15
2016-05-05T02:36:06.028Z,1007.24
2016-05-05T02:37:06.016Z,1007.15
2016-05-05T02:38:06.003Z,1007.17
2016-05-05T02:39:05.990Z,1007.15
2016-05-05T02:40:05.978Z,1007.14
2016-05-05T02:41:05.964Z,1007.1
2016-05-05T02:42:05.936Z,1007.12
2016-05-05T02:43:05.938Z,1007.08
2016-05-05T02:44:05.911Z,1007.1
2016-05-05T02:45:05.897Z,1007.05
2016-05-05T02:46:05.883Z,1007.07
2016-05-05T02:47:05.871Z,1007.04
2016-05-05T02:48:05.858Z,1007.04
2016-05-05T02:49:05.844Z,1007.02
2016-05-05T02:50:05.817Z,1007
2016-05-05T02:51:05.804Z,1006.98
2016-05-05T02:52:05.791Z,1006.97
2016-05-05T02:53:05.777Z,1006.94
2016-05-05T02:54:05.765Z,1006.96
2016-05-05T02:55:05.752Z,1006.93
2016-05-05T02:56:05.739Z,1006.93
2016-05-05T02:57:05.726Z,1006.89
2016-05-05T02:58:05.713Z,1006.93
2016-05-05T02:59:05.701Z,1006.92
2016-05-05T03:00:05.704Z,1006.88
2016-05-05T03:01:05.674Z,1006.91
2016-05-05T03:02:05.646Z,1006.91
2016-05-05T03:03:05.632Z,1006.87
2016-05-05T03:04:05.620Z,1006.88
2016-05-05T03:05:05.607Z,1006.87
2016-05-05T03:06:05.594Z,1006.86
2016-05-05T03:07:05.581Z,1006.86
2016-05-05T03:08:05.568Z,1006.85
2016-05-05T03:09:05.540Z,1006.82
2016-05-05T03:10:05.542Z,1006.83
2016-05-05T03:11:05.513Z,1006.84
2016-05-05T03:12:05.500Z,1006.85
2016-05-05T03:13:05.488Z,1006.86
2016-05-05T03:14:05.475Z,1006.85
2016-05-05T03:15:05.461Z,1006.84
2016-05-05T03:16:05.449Z,1006.86
2016-05-05T03:17:05.436Z,1006.88
2016-05-05T03:18:05.423Z,1006.9
2016-05-05T03:19:05.395Z,1006.9
2016-05-05T03:20:05.382Z,1006.87
2016-05-05T03:21:05.368Z,1006.9
2016-05-05T03:22:05.355Z,1006.88
2016-05-05T03:23:05.343Z,1006.9
2016-05-05T03:24:05.330Z,1006.86
2016-05-05T03:25:05.317Z,1006.88
2016-05-05T03:26:05.304Z,1006.87
2016-05-05T03:27:05.288Z,1006.82
2016-05-05T03:28:05.260Z,1006.86
2016-05-05T03:29:05.246Z,1006.87
2016-05-05T03:30:05.235Z,1006.9
2016-05-05T03:31:05.221Z,1006.87
2016-05-05T03:32:05.207Z,1006.85
2016-05-05T03:33:05.195Z,1006.86
2016-05-05T03:34:05.182Z,1006.87
2016-05-05T03:35:05.170Z,1006.89
2016-05-05T03:36:05.157Z,1006.9
2016-05-05T03:37:05.143Z,1006.92
2016-05-05T03:38:05.115Z,1006.89
2016-05-05T03:39:05.870Z,1006.89
2016-05-05T03:40:05.089Z,1006.89
2016-05-05T03:41:05.076Z,1006.89
2016-05-05T03:42:05.063Z,1006.9
2016-05-05T03:43:05.050Z,1006.86
2016-05-05T03:44:05.037Z,1006.86
2016-05-05T03:45:05.009Z,1006.84
2016-05-05T03:46:05.011Z,1006.85
2016-05-05T03:47:04.983Z,1006.86
2016-05-05T03:48:04.970Z,1006.86
2016-05-05T03:49:04.958Z,1006.89
2016-05-05T03:50:04.944Z,1006.89
2016-05-05T03:51:04.930Z,1006.92
2016-05-05T03:52:04.918Z,1006.89
2016-05-05T03:53:04.905Z,1006.96
2016-05-05T03:54:04.891Z,1006.93
2016-05-05T03:55:04.863Z,1006.96
2016-05-05T03:56:04.851Z,1006.9
2016-05-05T03:57:04.854Z,1006.92
2016-05-05T03:58:04.825Z,1006.88
2016-05-05T03:59:04.812Z,1006.9
2016-05-05T04:00:04.799Z,1006.92
2016-05-05T04:01:04.785Z,1006.87
2016-05-05T04:02:04.773Z,1006.87
2016-05-05T04:03:04.760Z,1006.84
2016-05-05T04:04:04.747Z,1006.85
2016-05-05T04:05:04.718Z,1006.84
2016-05-05T04:06:04.706Z,1006.84
2016-05-05T04:07:04.693Z,1006.84
2016-05-05T04:08:04.680Z,1006.79
2016-05-05T04:09:04.667Z,1006.8
2016-05-05T04:10:04.654Z,1006.78
2016-05-05T04:11:04.641Z,1006.74
2016-05-05T04:12:04.612Z,1006.73
2016-05-05T04:13:04.600Z,1006.71
2016-05-05T04:14:04.587Z,1006.74
2016-05-05T04:15:04.573Z,1006.73
2016-05-05T04:16:04.561Z,1006.68
2016-05-05T04:17:04.548Z,1006.67
2016-05-05T04:18:04.520Z,1006.67
2016-05-05T04:19:04.522Z,1006.66
2016-05-05T04:20:04.509Z,1006.69
2016-05-05T04:21:04.480Z,1006.69
2016-05-05T04:22:04.467Z,1006.67
2016-05-05T04:23:04.470Z,1006.64
2016-05-05T04:24:04.847Z,1006.67
2016-05-05T04:25:04.429Z,1006.67
2016-05-05T04:26:04.416Z,1006.62
2016-05-05T04:27:04.403Z,1006.65
2016-05-05T04:28:04.375Z,1006.63
2016-05-05T04:29:04.361Z,1006.64
2016-05-05T04:30:04.349Z,1006.65
2016-05-05T04:31:04.335Z,1006.65
2016-05-05T04:32:04.323Z,1006.68
2016-05-05T04:33:04.310Z,1006.66
2016-05-05T04:34:04.296Z,1006.66
2016-05-05T04:35:04.284Z,1006.62
2016-05-05T04:36:04.254Z,1006.62
2016-05-05T04:37:04.243Z,1006.59
2016-05-05T04:38:04.229Z,1006.65
2016-05-05T04:39:04.217Z,1006.63
2016-05-05T04:40:04.204Z,1006.62
2016-05-05T04:41:04.190Z,1006.6
2016-05-05T04:42:04.162Z,1006.61
2016-05-05T04:43:04.149Z,1006.6
2016-05-05T04:44:04.136Z,1006.61
2016-05-05T04:45:04.123Z,1006.63
2016-05-05T04:46:04.095Z,1006.67
2016-05-05T04:47:04.082Z,1006.62
2016-05-05T04:48:04.069Z,1006.61
2016-05-05T04:49:04.055Z,1006.61
2016-05-05T04:50:04.043Z,1006.58
2016-05-05T04:51:04.030Z,1006.6
2016-05-05T04:52:04.002Z,1006.58
2016-05-05T04:53:03.988Z,1006.55
2016-05-05T04:54:03.992Z,1006.56
2016-05-05T04:55:03.963Z,1006.57
2016-05-05T04:56:03.949Z,1006.62
2016-05-05T04:57:03.937Z,1006.6
2016-05-05T04:58:03.924Z,1006.6
2016-05-05T04:59:03.910Z,1006.64
2016-05-05T05:00:03.883Z,1006.61
2016-05-05T05:01:03.869Z,1006.62
2016-05-05T05:02:03.857Z,1006.62
2016-05-05T05:03:03.828Z,1006.63
2016-05-05T05:04:03.830Z,1006.66
2016-05-05T05:05:03.801Z,1006.68
2016-05-05T05:06:03.789Z,1006.7
2016-05-05T05:07:03.777Z,1006.65
2016-05-05T05:08:03.763Z,1006.64
2016-05-05T05:09:03.751Z,1006.62
2016-05-05T05:10:03.737Z,1006.59
2016-05-05T05:11:03.709Z,1006.58
2016-05-05T05:12:03.711Z,1006.55
2016-05-05T05:13:03.684Z,1006.59
2016-05-05T05:14:03.670Z,1006.58
2016-05-05T05:15:03.657Z,1006.56
2016-05-05T05:16:03.645Z,1006.51
2016-05-05T05:17:03.615Z,1006.57
2016-05-05T05:18:03.602Z,1006.5
2016-05-05T05:19:03.589Z,1006.5
2016-05-05T05:20:03.577Z,1006.47
2016-05-05T05:21:03.564Z,1006.45
2016-05-05T05:22:03.536Z,1006.46
2016-05-05T05:23:03.538Z,1006.48
2016-05-05T05:24:03.509Z,1006.47
2016-05-05T05:25:03.497Z,1006.5
2016-05-05T05:26:03.483Z,1006.5
2016-05-05T05:27:03.455Z,1006.51
2016-05-05T05:28:03.441Z,1006.52
2016-05-05T05:29:03.429Z,1006.48
2016-05-05T05:30:03.416Z,1006.47
2016-05-05T05:31:03.403Z,1006.54
2016-05-05T05:32:03.390Z,1006.51
2016-05-05T05:33:03.362Z,1006.54
2016-05-05T05:34:03.365Z,1006.57
2016-05-05T05:35:03.335Z,1006.54
2016-05-05T05:36:03.323Z,1006.53
2016-05-05T05:37:03.310Z,1006.54
2016-05-05T05:38:03.296Z,1006.53
2016-05-05T05:39:03.284Z,1006.52
2016-05-05T05:40:03.271Z,1006.53
2016-05-05T05:41:03.243Z,1006.49
2016-05-05T05:42:03.229Z,1006.5
2016-05-05T05:43:03.217Z,1006.5
2016-05-05T05:44:03.203Z,1006.49
2016-05-05T05:45:03.175Z,1006.52
2016-05-05T05:46:03.178Z,1006.49
2016-05-05T05:47:03.165Z,1006.5
2016-05-05T05:48:03.136Z,1006.47
2016-05-05T05:49:03.123Z,1006.47
2016-05-05T05:50:03.111Z,1006.48
2016-05-05T05:51:03.097Z,1006.46
2016-05-05T05:52:03.084Z,1006.46
2016-05-05T05:53:03.072Z,1006.45
2016-05-05T05:54:03.636Z,1006.46
2016-05-05T05:55:03.030Z,1006.49
2016-05-05T05:56:03.033Z,1006.44
2016-05-05T05:57:03.004Z,1006.42
2016-05-05T05:58:02.975Z,1006.41
2016-05-05T05:59:02.963Z,1006.39
2016-05-05T06:00:02.966Z,1006.36
2016-05-05T06:01:02.937Z,1006.36
2016-05-05T06:02:02.924Z,1006.4
2016-05-05T06:03:02.910Z,1006.35
2016-05-05T06:04:02.898Z,1006.3
2016-05-05T06:05:02.885Z,1006.36
2016-05-05T06:06:02.857Z,1006.37
2016-05-05T06:07:02.844Z,1006.34
2016-05-05T06:08:02.831Z,1006.31
2016-05-05T06:09:02.817Z,1006.29
2016-05-05T06:10:02.804Z,1006.29
2016-05-05T06:11:02.793Z,1006.32
2016-05-05T06:12:02.779Z,1006.31
2016-05-05T06:13:02.765Z,1006.32
2016-05-05T06:14:02.737Z,1006.31
2016-05-05T06:15:02.725Z,1006.35
2016-05-05T06:16:02.711Z,1006.37
2016-05-05T06:17:02.698Z,1006.36
2016-05-05T06:18:02.686Z,1006.36
2016-05-05T06:19:02.656Z,1006.4
2016-05-05T06:20:02.644Z,1006.34
2016-05-05T06:21:02.631Z,1006.38
2016-05-05T06:22:02.619Z,1006.39
2016-05-05T06:23:02.599Z,1006.39
2016-05-05T06:24:04.399Z,1006.39
2016-05-05T06:25:02.574Z,1006.37
2016-05-05T06:26:02.545Z,1006.41
2016-05-05T06:27:02.533Z,1006.44
2016-05-05T06:28:02.519Z,1006.45
2016-05-05T06:29:02.506Z,1006.47
2016-05-05T06:30:02.493Z,1006.53
2016-05-05T06:31:02.480Z,1006.54
2016-05-05T06:32:02.468Z,1006.53
2016-05-05T06:33:02.440Z,1006.59
2016-05-05T06:34:02.426Z,1006.59
2016-05-05T06:35:02.413Z,1006.59
2016-05-05T06:36:02.400Z,1006.61
2016-05-05T06:37:02.387Z,1006.62
2016-05-05T06:38:02.359Z,1006.7
2016-05-05T06:39:02.345Z,1006.66
2016-05-05T06:40:02.333Z,1006.7
2016-05-05T06:41:02.320Z,1006.72
2016-05-05T06:42:02.306Z,1006.71
2016-05-05T06:43:02.295Z,1006.72
2016-05-05T06:44:02.281Z,1006.71
2016-05-05T06:45:02.253Z,1006.71
2016-05-05T06:46:02.255Z,1006.78
2016-05-05T06:47:02.227Z,1006.75
2016-05-05T06:48:02.214Z,1006.78
2016-05-05T06:49:02.200Z,1006.77
2016-05-05T06:50:02.188Z,1006.76
2016-05-05T06:51:02.175Z,1006.78
2016-05-05T06:52:02.161Z,1006.78
2016-05-05T06:53:02.133Z,1006.75
2016-05-05T06:54:02.121Z,1006.77
2016-05-05T06:55:02.108Z,1006.76
2016-05-05T06:56:02.094Z,1006.75
2016-05-05T06:57:02.082Z,1006.73
2016-05-05T06:58:02.069Z,1006.75
2016-05-05T06:59:02.055Z,1006.74
2016-05-05T07:00:02.043Z,1006.76
2016-05-05T07:01:02.029Z,1006.74
2016-05-05T07:02:02.002Z,1006.75
2016-05-05T07:03:01.988Z,1006.76
2016-05-05T07:04:01.976Z,1006.78
2016-05-05T07:05:01.963Z,1006.74
2016-05-05T07:06:01.950Z,1006.75
2016-05-05T07:07:01.937Z,1006.74
2016-05-05T07:08:01.924Z,1006.75
2016-05-05T07:09:01.895Z,1006.76
2016-05-05T07:10:01.882Z,1006.76
2016-05-05T07:11:01.870Z,1006.79
2016-05-05T07:12:01.856Z,1006.8
2016-05-05T07:13:01.843Z,1006.84
2016-05-05T07:14:01.831Z,1006.86
2016-05-05T07:15:01.803Z,1006.88
2016-05-05T07:16:01.789Z,1006.85
2016-05-05T07:17:01.775Z,1006.9
2016-05-05T07:18:01.764Z,1006.87
2016-05-05T07:19:01.750Z,1006.87
2016-05-05T07:20:01.737Z,1006.86
2016-05-05T07:21:01.724Z,1006.85
2016-05-05T07:22:01.711Z,1006.88
2016-05-05T07:23:01.683Z,1006.86
2016-05-05T07:24:01.669Z,1006.92
2016-05-05T07:25:01.657Z,1006.89
2016-05-05T07:26:01.644Z,1006.9
2016-05-05T07:27:01.631Z,1006.9
2016-05-05T07:28:01.618Z,1006.93
2016-05-05T07:29:01.590Z,1006.93
2016-05-05T07:30:01.577Z,1006.95
2016-05-05T07:31:01.564Z,1006.94
2016-05-05T07:32:01.551Z,1007
2016-05-05T07:33:01.538Z,1007.01
2016-05-05T07:34:01.525Z,1007.01
2016-05-05T07:35:01.512Z,1006.98
2016-05-05T07:36:01.484Z,1007.03
2016-05-05T07:37:01.487Z,1007.04
2016-05-05T07:38:01.473Z,1007.04
2016-05-05T07:39:01.445Z,1007.02
2016-05-05T07:40:01.431Z,1007.03
2016-05-05T07:41:01.419Z,1007.02
2016-05-05T07:42:01.406Z,1007.02
2016-05-05T07:43:01.392Z,1007.02
2016-05-05T07:44:01.381Z,1006.99
2016-05-05T07:45:01.351Z,1007.04
2016-05-05T07:46:01.354Z,1006.98
2016-05-05T07:47:01.325Z,1006.96
2016-05-05T07:48:01.312Z,1006.96
2016-05-05T07:49:01.300Z,1006.94
2016-05-05T07:50:01.286Z,1006.91
2016-05-05T07:51:01.275Z,1006.92
2016-05-05T07:52:01.245Z,1006.87
2016-05-05T07:53:01.233Z,1006.84
2016-05-05T07:54:01.219Z,1006.86
2016-05-05T07:55:01.206Z,1006.84
2016-05-05T07:56:01.193Z,1006.85
2016-05-05T07:57:01.165Z,1006.84
2016-05-05T07:58:01.152Z,1006.91
2016-05-05T07:59:01.155Z,1006.89
2016-05-05T08:00:01.127Z,1006.9
2016-05-05T08:01:01.113Z,1006.94
2016-05-05T08:02:01.100Z,1006.97
2016-05-05T08:03:01.087Z,1006.94
2016-05-05T08:04:01.074Z,1006.97
2016-05-05T08:05:01.046Z,1006.98
2016-05-05T08:06:01.033Z,1007.02
2016-05-05T08:07:01.021Z,1007.02
2016-05-05T08:08:01.007Z,1007.03
2016-05-05T08:09:00.993Z,1007.09
2016-05-05T08:10:00.982Z,1007.12
2016-05-05T08:11:00.953Z,1007.13
2016-05-05T08:12:00.956Z,1007.15
2016-05-05T08:13:00.926Z,1007.22
2016-05-05T08:14:00.914Z,1007.21
2016-05-05T08:15:00.901Z,1007.23
2016-05-05T08:16:00.888Z,1007.22
2016-05-05T08:17:00.859Z,1007.23
2016-05-05T08:18:00.846Z,1007.24
2016-05-05T08:19:00.834Z,1007.24
2016-05-05T08:20:00.820Z,1007.22
2016-05-05T08:21:00.808Z,1007.22
2016-05-05T08:22:00.779Z,1007.21
2016-05-05T08:23:00.767Z,1007.2
2016-05-05T08:24:00.753Z,1007.17
2016-05-05T08:25:00.881Z,1007.2
2016-05-05T08:26:00.727Z,1007.17
2016-05-05T08:27:00.714Z,1007.2
2016-05-05T08:28:00.686Z,1007.19
2016-05-05T08:29:00.673Z,1007.19
2016-05-05T08:30:00.660Z,1007.21
2016-05-05T08:31:00.647Z,1007.19
2016-05-05T08:32:00.619Z,1007.23
2016-05-05T08:33:00.605Z,1007.21
2016-05-05T08:34:00.593Z,1007.19
2016-05-05T08:35:00.580Z,1007.23
2016-05-05T08:36:00.566Z,1007.19
2016-05-05T08:37:00.538Z,1007.18
2016-05-05T08:38:00.526Z,1007.21
2016-05-05T08:39:00.512Z,1007.22
2016-05-05T08:40:00.499Z,1007.26
2016-05-05T08:41:00.486Z,1007.23
2016-05-05T08:42:00.457Z,1007.17
2016-05-05T08:43:00.445Z,1007.17
2016-05-05T08:44:00.432Z,1007.19
2016-05-05T08:45:00.419Z,1007.18
2016-05-05T08:46:00.391Z,1007.17
2016-05-05T08:47:00.378Z,1007.17
2016-05-05T08:48:00.364Z,1007.16
2016-05-05T08:49:00.351Z,1007.14
2016-05-05T08:50:00.323Z,1007.18
2016-05-05T08:51:00.311Z,1007.17
2016-05-05T08:52:00.297Z,1007.15
2016-05-05T08:53:00.284Z,1007.19
2016-05-05T08:54:00.272Z,1007.17
2016-05-05T08:55:00.242Z,1007.14
2016-05-05T08:56:00.230Z,1007.19
2016-05-05T08:57:00.217Z,1007.17
2016-05-05T08:58:00.205Z,1007.12
2016-05-05T08:59:00.191Z,1007.17
2016-05-05T09:00:00.162Z,1007.11
2016-05-05T09:01:00.150Z,1007.12
2016-05-05T09:02:00.137Z,1007.13
2016-05-05T09:03:00.123Z,1007.07
2016-05-05T09:04:00.111Z,1007.13
2016-05-05T09:05:00.082Z,1007.07
2016-05-05T09:06:00.069Z,1007.11
2016-05-05T09:07:00.056Z,1007.04
2016-05-05T09:08:00.043Z,1007.03
2016-05-05T09:09:00.015Z,1007.03
2016-05-05T09:10:00.002Z,1007.03
2016-05-05T09:10:59.989Z,1006.98
2016-05-05T09:11:59.960Z,1006.96
2016-05-05T09:12:59.948Z,1006.93
2016-05-05T09:13:59.935Z,1006.92
2016-05-05T09:14:59.937Z,1006.89
2016-05-05T09:15:59.893Z,1006.86
2016-05-05T09:16:59.881Z,1006.84
2016-05-05T09:17:59.868Z,1006.84
2016-05-05T09:18:59.853Z,1006.85
2016-05-05T09:19:59.842Z,1006.83
2016-05-05T09:20:59.828Z,1006.83
2016-05-05T09:21:59.815Z,1006.83
2016-05-05T09:22:59.787Z,1006.82
2016-05-05T09:23:59.774Z,1006.81
2016-05-05T09:24:59.792Z,1006.8
2016-05-05T09:25:59.747Z,1006.75
2016-05-05T09:26:59.767Z,1006.78
2016-05-05T09:27:59.706Z,1006.75
2016-05-05T09:28:59.678Z,1006.8
2016-05-05T09:29:59.691Z,1006.76
2016-05-05T09:30:59.659Z,1006.8
2016-05-05T09:31:59.630Z,1006.78
2016-05-05T09:32:59.677Z,1006.77
2016-05-05T09:33:59.591Z,1006.77
2016-05-05T09:34:59.577Z,1006.78
2016-05-05T09:35:59.564Z,1006.78
2016-05-05T09:36:59.552Z,1006.81
2016-05-05T09:37:59.538Z,1006.82
2016-05-05T09:38:59.509Z,1006.83
2016-05-05T09:39:59.497Z,1006.83
2016-05-05T09:40:59.484Z,1006.85
2016-05-05T09:41:59.471Z,1006.85
2016-05-05T09:42:59.452Z,1006.88
2016-05-05T09:43:59.424Z,1006.89
2016-05-05T09:44:59.411Z,1006.93
2016-05-05T09:45:59.397Z,1007
2016-05-05T09:46:59.370Z,1006.98
2016-05-05T09:47:59.387Z,1006.98
2016-05-05T09:48:59.343Z,1007.02
2016-05-05T09:49:59.331Z,1007.05
2016-05-05T09:50:59.333Z,1007.1
2016-05-05T09:51:59.289Z,1007.06
2016-05-05T09:52:59.276Z,1007.11
2016-05-05T09:53:59.263Z,1007.05
2016-05-05T09:54:59.250Z,1007.09
2016-05-05T09:55:59.237Z,1007.07
2016-05-05T09:56:59.224Z,1007.1
2016-05-05T09:57:59.196Z,1007.13
2016-05-05T09:58:59.183Z,1007.1
2016-05-05T09:59:59.169Z,1007.16
2016-05-05T10:00:59.141Z,1007.22
2016-05-05T10:01:59.128Z,1007.23
2016-05-05T10:02:59.115Z,1007.2
2016-05-05T10:03:59.102Z,1007.22
2016-05-05T10:04:59.073Z,1007.25
2016-05-05T10:05:59.060Z,1007.3
2016-05-05T10:06:59.048Z,1007.32
2016-05-05T10:07:59.035Z,1007.29
2016-05-05T10:08:59.021Z,1007.25
2016-05-05T10:09:58.993Z,1007.3
2016-05-05T10:10:58.996Z,1007.32
2016-05-05T10:11:58.967Z,1007.36
2016-05-05T10:12:58.955Z,1007.42
2016-05-05T10:13:58.942Z,1007.39
2016-05-05T10:14:58.912Z,1007.45
2016-05-05T10:15:58.901Z,1007.49
2016-05-05T10:16:58.872Z,1007.49
2016-05-05T10:17:58.874Z,1007.5
2016-05-05T10:18:58.846Z,1007.49
2016-05-05T10:19:58.848Z,1007.54
2016-05-05T10:20:58.819Z,1007.51
2016-05-05T10:21:58.792Z,1007.56
2016-05-05T10:22:58.809Z,1007.55
2016-05-05T10:23:58.766Z,1007.59
2016-05-05T10:24:58.939Z,1007.63
2016-05-05T10:25:58.739Z,1007.62
2016-05-05T10:26:58.711Z,1007.62
2016-05-05T10:27:58.698Z,1007.61
2016-05-05T10:28:58.685Z,1007.63
2016-05-05T10:29:58.672Z,1007.61
2016-05-05T10:30:58.643Z,1007.66
2016-05-05T10:31:58.646Z,1007.62
2016-05-05T10:32:58.619Z,1007.61
2016-05-05T10:33:58.589Z,1007.65
2016-05-05T10:34:58.577Z,1007.62
2016-05-05T10:35:58.563Z,1007.59
2016-05-05T10:36:58.551Z,1007.61
2016-05-05T10:37:58.538Z,1007.59
2016-05-05T10:38:58.556Z,1007.55
2016-05-05T10:39:58.496Z,1007.55
2016-05-05T10:40:58.482Z,1007.58
2016-05-05T10:41:58.470Z,1007.51
2016-05-05T10:42:58.442Z,1007.5
2016-05-05T10:43:58.445Z,1007.5
2016-05-05T10:44:58.415Z,1007.49
2016-05-05T10:45:58.387Z,1007.43
2016-05-05T10:46:58.484Z,1007.42
2016-05-05T10:47:58.362Z,1007.42
2016-05-05T10:48:58.348Z,1007.43
2016-05-05T10:49:58.320Z,1007.4
2016-05-05T10:50:58.306Z,1007.4
2016-05-05T10:51:58.294Z,1007.39
2016-05-05T10:52:58.281Z,1007.41
2016-05-05T10:53:58.267Z,1007.35
2016-05-05T10:54:58.239Z,1007.33
2016-05-05T10:55:58.227Z,1007.36
2016-05-05T10:56:58.198Z,1007.34
2016-05-05T10:57:58.200Z,1007.32
2016-05-05T10:58:58.204Z,1007.33
2016-05-05T10:59:58.234Z,1007.34
2016-05-05T11:00:58.265Z,1007.31
2016-05-05T11:01:58.281Z,1007.29
2016-05-05T11:02:58.733Z,1007.29
2016-05-05T11:03:58.321Z,1007.27
2016-05-05T11:04:58.325Z,1007.27
2016-05-05T11:05:58.311Z,1007.18
2016-05-05T11:06:58.315Z,1007.2
2016-05-05T11:07:58.333Z,1007.16
2016-05-05T11:08:58.314Z,1007.18
2016-05-05T11:09:58.306Z,1007.17
2016-05-05T11:10:58.298Z,1007.11
2016-05-05T11:11:58.275Z,1007.13
2016-05-05T11:12:58.267Z,1007.13
2016-05-05T11:13:58.241Z,1007.1
2016-05-05T11:14:58.231Z,1007.08
2016-05-05T11:15:58.235Z,1007.03
2016-05-05T11:16:58.208Z,1007
2016-05-05T11:17:58.197Z,1006.95
2016-05-05T11:18:58.186Z,1006.96
2016-05-05T11:19:58.158Z,1006.95
2016-05-05T11:20:58.145Z,1006.92
2016-05-05T11:21:58.134Z,1006.92
2016-05-05T11:22:58.121Z,1006.94
2016-05-05T11:23:58.090Z,1006.9
2016-05-05T11:24:58.108Z,1006.9
2016-05-05T11:25:58.065Z,1006.92
2016-05-05T11:26:58.052Z,1006.93
2016-05-05T11:27:58.024Z,1006.92
2016-05-05T11:28:58.011Z,1006.92
2016-05-05T11:29:58.014Z,1006.85
2016-05-05T11:30:57.985Z,1006.86
2016-05-05T11:31:57.958Z,1006.9
2016-05-05T11:32:57.945Z,1006.88
2016-05-05T11:33:57.931Z,1006.87
2016-05-05T11:34:57.918Z,1006.83
2016-05-05T11:35:57.889Z,1006.83
2016-05-05T11:36:57.892Z,1006.86
2016-05-05T11:37:57.863Z,1006.83
2016-05-05T11:38:57.851Z,1006.78
2016-05-05T11:39:57.839Z,1006.8
2016-05-05T11:40:57.810Z,1006.76
2016-05-05T11:41:57.813Z,1006.75
2016-05-05T11:42:57.783Z,1006.76
2016-05-05T11:43:57.771Z,1006.78
2016-05-05T11:44:57.742Z,1006.76
2016-05-05T11:45:57.746Z,1006.8
2016-05-05T11:46:57.716Z,1006.8
2016-05-05T11:47:57.704Z,1006.78
2016-05-05T11:48:57.690Z,1006.81
2016-05-05T11:49:57.662Z,1006.85
2016-05-05T11:50:57.665Z,1006.89
2016-05-05T11:51:57.636Z,1006.86
2016-05-05T11:52:57.623Z,1006.86
2016-05-05T11:53:57.610Z,1006.85
2016-05-05T11:54:57.598Z,1006.85
2016-05-05T11:55:57.569Z,1006.88
2016-05-05T11:56:57.556Z,1006.9
2016-05-05T11:57:57.543Z,1006.91
2016-05-05T11:58:57.530Z,1006.93
2016-05-05T11:59:57.517Z,1006.94
2016-05-05T12:00:57.519Z,1006.95
2016-05-05T12:01:57.475Z,1006.95
2016-05-05T12:02:57.462Z,1006.94
2016-05-05T12:03:57.450Z,1006.99
2016-05-05T12:04:57.422Z,1006.96
2016-05-05T12:05:57.424Z,1006.96
2016-05-05T12:06:57.395Z,1006.95
2016-05-05T12:07:57.382Z,1006.91